createdAt,value
2018-07-14T00:02:18.797Z,15.89
2018-07-14T00:04:45.935Z,15.84
2018-07-14T00:07:13.060Z,15.81
2018-07-14T00:09:40.217Z,15.78
2018-07-14T00:12:07.502Z,15.75
2018-07-14T00:14:34.589Z,15.78
2018-07-14T00:17:02.782Z,15.88
2018-07-14T00:19:29.880Z,15.86
2018-07-14T00:21:58.680Z,15.93
2018-07-14T00:24:25.974Z,16.10
2018-07-14T00:26:53.034Z,16.23
2018-07-14T00:29:20.147Z,16.20
2018-07-14T00:31:47.401Z,16.22
2018-07-14T00:34:14.581Z,16.20
2018-07-14T00:36:41.731Z,16.18
2018-07-14T00:39:08.884Z,16.25
2018-07-14T00:41:36.003Z,16.23
2018-07-14T00:44:03.080Z,16.27
2018-07-14T00:46:31.396Z,16.28
2018-07-14T00:48:58.508Z,16.29
2018-07-14T00:51:25.596Z,16.25
2018-07-14T00:53:52.804Z,16.21
2018-07-14T00:56:21.164Z,16.19
2018-07-14T00:58:48.707Z,16.17
2018-07-14T01:01:15.928Z,16.24
2018-07-14T01:03:43.043Z,16.25
2018-07-14T01:06:10.173Z,16.24
2018-07-14T01:08:37.369Z,16.21
2018-07-14T01:11:04.523Z,16.27
2018-07-14T01:13:32.644Z,16.32
2018-07-14T01:15:59.780Z,16.43
2018-07-14T01:18:26.851Z,16.40
2018-07-14T01:20:55.006Z,16.47
2018-07-14T01:23:22.247Z,16.47
2018-07-14T01:25:49.364Z,16.46
2018-07-14T01:28:16.496Z,16.47
2018-07-14T01:30:44.347Z,16.49
2018-07-14T01:33:11.430Z,16.47
2018-07-14T01:35:38.579Z,16.61
2018-07-14T01:38:05.847Z,16.57
2018-07-14T01:40:32.994Z,16.56
2018-07-14T01:43:00.096Z,16.51
2018-07-14T01:45:28.868Z,16.58
2018-07-14T01:47:56.024Z,16.59
2018-07-14T01:50:23.135Z,16.57
2018-07-14T01:52:50.658Z,16.66
2018-07-14T01:55:17.847Z,16.67
2018-07-14T01:57:45.077Z,16.64
2018-07-14T02:00:12.620Z,16.63
2018-07-14T02:02:39.840Z,16.62
2018-07-14T02:05:07.525Z,16.65
2018-07-14T02:07:35.654Z,16.66
2018-07-14T02:10:02.797Z,16.67
2018-07-14T02:12:29.998Z,16.62
2018-07-14T02:14:57.118Z,16.57
2018-07-14T02:17:24.225Z,16.58
2018-07-14T02:19:51.333Z,16.59
2018-07-14T02:22:20.487Z,16.56
2018-07-14T02:24:47.595Z,16.55
2018-07-14T02:27:16.863Z,16.49
2018-07-14T02:29:44.035Z,16.56
2018-07-14T02:32:11.185Z,16.42
2018-07-14T02:34:38.572Z,16.44
2018-07-14T02:37:05.783Z,16.38
2018-07-14T02:39:33.008Z,16.43
2018-07-14T02:42:00.117Z,16.42
2018-07-14T02:44:28.447Z,16.45
2018-07-14T02:46:55.559Z,16.47
2018-07-14T02:49:22.652Z,16.39
2018-07-14T02:51:52.047Z,16.36
2018-07-14T02:54:19.168Z,16.32
2018-07-14T02:56:46.405Z,16.36
2018-07-14T02:59:13.548Z,16.23
2018-07-14T03:01:41.648Z,16.19
2018-07-14T03:04:08.863Z,16.21
2018-07-14T03:06:36.037Z,16.12
2018-07-14T03:09:04.183Z,16.14
2018-07-14T03:11:31.275Z,16.18
2018-07-14T03:14:00.539Z,16.08
2018-07-14T03:16:27.767Z,16.06
2018-07-14T03:18:54.897Z,16.17
2018-07-14T03:21:22.031Z,16.07
2018-07-14T03:23:49.156Z,15.99
2018-07-14T03:26:16.279Z,16.00
2018-07-14T03:28:44.417Z,15.94
2018-07-14T03:31:13.284Z,15.94
2018-07-14T03:33:40.408Z,15.94
2018-07-14T03:36:07.560Z,15.97
2018-07-14T03:38:34.771Z,15.92
2018-07-14T03:41:01.978Z,15.93
2018-07-14T03:43:29.116Z,15.95
2018-07-14T03:45:56.240Z,15.91
2018-07-14T03:48:23.314Z,15.86
2018-07-14T03:50:52.484Z,15.83
2018-07-14T03:53:19.709Z,15.93
2018-07-14T03:55:46.865Z,15.99
2018-07-14T03:58:14.042Z,15.88
2018-07-14T04:00:41.142Z,15.83
2018-07-14T04:03:08.304Z,15.86
2018-07-14T04:05:35.552Z,15.85
2018-07-14T04:08:02.700Z,15.90
2018-07-14T04:10:31.760Z,15.89
2018-07-14T04:12:58.895Z,15.90
2018-07-14T04:15:27.790Z,15.91
2018-07-14T04:18:00.666Z,15.88
2018-07-14T04:20:27.982Z,15.90
2018-07-14T04:22:55.084Z,15.92
2018-07-14T04:25:22.210Z,15.96
2018-07-14T04:27:49.375Z,15.93
2018-07-14T04:30:16.554Z,15.92
2018-07-14T04:32:43.738Z,16.05
2018-07-14T04:35:10.885Z,16.04
2018-07-14T04:37:39.984Z,16.05
2018-07-14T04:40:07.621Z,16.05
2018-07-14T04:42:34.831Z,16.07
2018-07-14T04:45:02.045Z,16.10
2018-07-14T04:47:29.246Z,16.17
2018-07-14T04:49:56.740Z,16.15
2018-07-14T04:52:25.825Z,16.14
2018-07-14T04:54:53.111Z,16.19
2018-07-14T04:57:20.389Z,16.17
2018-07-14T04:59:47.985Z,16.20
2018-07-14T05:02:15.493Z,16.28
2018-07-14T05:04:43.589Z,16.31
2018-07-14T05:07:10.696Z,16.35
2018-07-14T05:09:38.514Z,16.36
2018-07-14T05:12:06.379Z,16.50
2018-07-14T05:14:33.534Z,16.56
2018-07-14T05:17:01.847Z,16.52
2018-07-14T05:19:29.331Z,16.65
2018-07-14T05:21:57.228Z,16.61
2018-07-14T05:24:25.502Z,16.64
2018-07-14T05:26:52.961Z,16.70
2018-07-14T05:29:20.354Z,16.70
2018-07-14T05:31:47.610Z,16.76
2018-07-14T05:34:14.719Z,16.81
2018-07-14T05:36:41.836Z,16.86
2018-07-14T05:39:09.899Z,16.89
2018-07-14T05:41:37.943Z,16.93
2018-07-14T05:44:05.349Z,17.09
2018-07-14T05:46:32.648Z,16.99
2018-07-14T05:48:59.933Z,17.09
2018-07-14T05:51:27.024Z,17.05
2018-07-14T05:53:54.293Z,17.13
2018-07-14T05:56:23.561Z,17.20
2018-07-14T05:58:50.777Z,17.40
2018-07-14T06:01:18.375Z,17.32
2018-07-14T06:03:46.166Z,17.45
2018-07-14T06:06:13.363Z,17.56
2018-07-14T06:08:40.564Z,17.65
2018-07-14T06:11:07.722Z,17.62
2018-07-14T06:13:34.851Z,17.67
2018-07-14T06:16:02.156Z,17.79
2018-07-14T06:18:29.320Z,17.70
2018-07-14T06:20:56.418Z,17.68
2018-07-14T06:23:23.673Z,17.64
2018-07-14T06:25:50.779Z,17.80
2018-07-14T06:28:19.052Z,17.89
2018-07-14T06:30:46.248Z,17.93
2018-07-14T06:33:13.596Z,17.95
2018-07-14T06:35:40.729Z,17.91
2018-07-14T06:38:07.891Z,18.00
2018-07-14T06:40:35.181Z,18.12
2018-07-14T06:43:02.347Z,18.08
2018-07-14T06:45:29.572Z,18.26
2018-07-14T06:47:56.847Z,18.44
2018-07-14T06:50:23.966Z,18.49
2018-07-14T06:52:51.260Z,18.69
2018-07-14T06:55:18.551Z,18.83
2018-07-14T06:57:45.708Z,18.86
2018-07-14T07:00:13.037Z,18.76
2018-07-14T07:02:40.202Z,18.80
2018-07-14T07:05:07.677Z,18.88
2018-07-14T07:07:34.914Z,19.04
2018-07-14T07:10:03.572Z,19.02
2018-07-14T07:12:30.688Z,19.14
2018-07-14T07:15:00.388Z,19.24
2018-07-14T07:17:27.781Z,19.28
2018-07-14T07:19:55.319Z,19.47
2018-07-14T07:22:23.013Z,19.55
2018-07-14T07:24:50.754Z,19.54
2018-07-14T07:27:17.955Z,19.70
2018-07-14T07:29:46.457Z,19.75
2018-07-14T07:32:14.820Z,19.74
2018-07-14T07:34:42.261Z,19.91
2018-07-14T07:37:09.532Z,20.08
2018-07-14T07:39:36.705Z,20.10
2018-07-14T07:42:03.856Z,20.22
2018-07-14T07:44:32.019Z,20.30
2018-07-14T07:46:59.133Z,20.44
2018-07-14T07:49:26.274Z,20.74
2018-07-14T07:51:53.437Z,20.66
2018-07-14T07:54:20.527Z,20.59
2018-07-14T07:56:47.667Z,20.77
2018-07-14T07:59:14.840Z,20.82
2018-07-14T08:01:42.062Z,20.85
2018-07-14T08:04:09.387Z,21.04
2018-07-14T08:06:36.680Z,21.19
2018-07-14T08:09:05.163Z,21.19
2018-07-14T08:11:32.280Z,21.12
2018-07-14T08:13:59.478Z,21.25
2018-07-14T08:16:26.707Z,21.14
2018-07-14T08:18:53.807Z,21.40
2018-07-14T08:21:21.017Z,21.50
2018-07-14T08:23:48.186Z,21.53
2018-07-14T08:26:15.487Z,21.55
2018-07-14T08:28:42.895Z,21.44
2018-07-14T08:31:10.194Z,21.79
2018-07-14T08:33:37.323Z,22.06
2018-07-14T08:36:04.724Z,22.25
2018-07-14T08:38:31.870Z,22.22
2018-07-14T08:40:58.995Z,22.18
2018-07-14T08:43:26.212Z,22.44
2018-07-14T08:45:53.549Z,22.23
2018-07-14T08:48:20.650Z,22.29
2018-07-14T08:50:47.825Z,22.32
2018-07-14T08:53:14.956Z,22.66
2018-07-14T08:55:42.212Z,22.56
2018-07-14T08:58:09.456Z,22.52
2018-07-14T09:00:36.543Z,22.68
2018-07-14T09:03:03.648Z,23.06
2018-07-14T09:05:30.856Z,23.25
2018-07-14T09:07:59.101Z,23.39
2018-07-14T09:10:26.285Z,23.51
2018-07-14T09:12:53.871Z,23.47
2018-07-14T09:15:20.980Z,23.53
2018-07-14T09:17:48.099Z,23.49
2018-07-14T09:20:15.299Z,23.58
2018-07-14T09:22:42.634Z,23.90
2018-07-14T09:25:09.841Z,23.92
2018-07-14T09:27:37.128Z,24.01
2018-07-14T09:30:04.469Z,23.59
2018-07-14T09:32:31.644Z,23.82
2018-07-14T09:34:58.871Z,23.68
2018-07-14T09:37:26.061Z,23.77
2018-07-14T09:39:53.196Z,23.99
2018-07-14T09:42:20.467Z,24.27
2018-07-14T09:44:47.669Z,24.71
2018-07-14T09:47:14.855Z,24.56
2018-07-14T09:49:42.109Z,24.77
2018-07-14T09:52:09.352Z,24.73
2018-07-14T09:54:36.516Z,24.59
2018-07-14T09:57:03.745Z,24.72
2018-07-14T09:59:30.989Z,25.08
2018-07-14T10:01:58.157Z,24.72
2018-07-14T10:04:25.352Z,24.74
2018-07-14T10:06:52.444Z,24.81
2018-07-14T10:09:23.689Z,25.05
2018-07-14T10:11:50.887Z,24.63
2018-07-14T10:14:18.005Z,25.04
2018-07-14T10:16:45.156Z,25.21
2018-07-14T10:19:12.420Z,25.29
2018-07-14T10:21:39.566Z,25.38
2018-07-14T10:24:06.871Z,25.46
2018-07-14T10:26:34.016Z,25.88
2018-07-14T10:29:01.196Z,26.11
2018-07-14T10:31:28.275Z,26.52
2018-07-14T10:33:56.472Z,26.88
2018-07-14T10:36:24.528Z,26.43
2018-07-14T10:38:51.768Z,26.22
2018-07-14T10:41:20.089Z,26.16
2018-07-14T10:43:47.533Z,26.42
2018-07-14T10:46:14.652Z,26.26
2018-07-14T10:48:41.842Z,26.82
2018-07-14T10:51:10.105Z,27.31
2018-07-14T10:53:37.244Z,27.35
2018-07-14T10:56:04.971Z,26.84
2018-07-14T10:58:32.110Z,26.94
2018-07-14T11:00:59.212Z,27.26
2018-07-14T11:03:26.442Z,27.42
2018-07-14T11:05:53.599Z,27.31
2018-07-14T11:08:20.783Z,28.10
2018-07-14T11:10:48.881Z,28.67
2018-07-14T11:13:15.967Z,28.55
2018-07-14T11:15:43.069Z,28.84
2018-07-14T11:18:10.313Z,29.02
2018-07-14T11:20:38.568Z,29.19
2018-07-14T11:23:05.697Z,29.57
2018-07-14T11:25:32.861Z,29.70
2018-07-14T11:28:01.776Z,30.05
2018-07-14T11:30:28.904Z,29.71
2018-07-14T11:32:56.316Z,30.13
2018-07-14T11:35:23.560Z,30.30
2018-07-14T11:37:50.733Z,30.73
2018-07-14T11:40:17.924Z,30.67
2018-07-14T11:42:45.192Z,31.50
2018-07-14T11:45:12.388Z,30.86
2018-07-14T11:47:39.960Z,31.43
2018-07-14T11:50:07.076Z,31.74
2018-07-14T11:52:35.310Z,31.92
2018-07-14T11:55:02.511Z,32.30
2018-07-14T11:57:31.567Z,32.68
2018-07-14T11:59:58.773Z,32.61
2018-07-14T12:02:26.016Z,33.46
2018-07-14T12:04:53.479Z,33.36
2018-07-14T12:07:20.673Z,33.02
2018-07-14T12:09:47.833Z,34.21
2018-07-14T12:12:14.951Z,34.36
2018-07-14T12:14:42.079Z,32.78
2018-07-14T12:17:10.959Z,30.67
2018-07-14T12:19:38.141Z,28.53
2018-07-14T12:22:05.266Z,28.56
2018-07-14T12:24:34.263Z,28.05
2018-07-14T12:27:01.379Z,27.36
2018-07-14T12:29:29.975Z,27.05
2018-07-14T12:31:57.454Z,26.40
2018-07-14T12:34:24.708Z,26.74
2018-07-14T12:36:51.896Z,26.28
2018-07-14T12:39:19.110Z,26.46
2018-07-14T12:41:48.114Z,26.29
2018-07-14T12:44:15.229Z,26.45
2018-07-14T12:46:42.370Z,26.40
2018-07-14T12:49:09.619Z,26.53
2018-07-14T12:51:36.772Z,26.52
2018-07-14T12:54:03.960Z,26.41
2018-07-14T12:56:31.110Z,26.32
2018-07-14T12:58:58.473Z,26.29
2018-07-14T13:01:25.776Z,26.42
2018-07-14T13:03:53.557Z,26.27
2018-07-14T13:06:20.751Z,26.15
2018-07-14T13:08:47.917Z,26.06
2018-07-14T13:11:15.180Z,25.95
2018-07-14T13:13:42.312Z,25.93
2018-07-14T13:16:09.538Z,25.74
2018-07-14T13:18:36.687Z,25.49
2018-07-14T13:21:03.840Z,25.66
2018-07-14T13:23:31.098Z,25.78
2018-07-14T13:25:59.265Z,25.88
2018-07-14T13:28:26.520Z,25.98
2018-07-14T13:30:53.772Z,25.99
2018-07-14T13:33:22.039Z,25.96
2018-07-14T13:35:49.133Z,26.05
2018-07-14T13:38:18.194Z,26.24
2018-07-14T13:40:45.357Z,26.10
2018-07-14T13:43:12.509Z,25.97
2018-07-14T13:45:39.840Z,26.13
2018-07-14T13:48:07.464Z,26.12
2018-07-14T13:50:35.369Z,26.02
2018-07-14T13:53:03.700Z,26.19
2018-07-14T13:55:32.398Z,26.12
2018-07-14T13:58:00.656Z,26.06
2018-07-14T14:00:29.268Z,26.04
2018-07-14T14:02:56.896Z,26.00
2018-07-14T14:05:24.274Z,26.45
2018-07-14T14:07:51.674Z,26.45
2018-07-14T14:10:18.833Z,26.64
2018-07-14T14:12:46.189Z,26.23
2018-07-14T14:15:13.501Z,26.52
2018-07-14T14:17:40.758Z,26.80
2018-07-14T14:20:07.964Z,26.76
2018-07-14T14:22:35.581Z,27.01
2018-07-14T14:25:03.920Z,27.28
2018-07-14T14:27:31.607Z,27.67
2018-07-14T14:29:59.884Z,27.45
2018-07-14T14:32:28.519Z,27.49
2018-07-14T14:34:57.292Z,27.23
2018-07-14T14:37:26.350Z,27.24
2018-07-14T14:39:55.462Z,27.14
2018-07-14T14:42:24.870Z,27.36
2018-07-14T14:44:55.461Z,27.42
2018-07-14T14:47:27.825Z,27.48
2018-07-14T14:49:55.751Z,27.71
2018-07-14T14:52:24.415Z,27.37
2018-07-14T14:54:51.883Z,27.08
2018-07-14T14:57:19.752Z,27.19
2018-07-14T14:59:47.097Z,27.50
2018-07-14T15:02:14.619Z,28.14
2018-07-14T15:04:42.008Z,28.58
2018-07-14T15:07:09.935Z,28.81
2018-07-14T15:09:37.490Z,29.01
2018-07-14T15:12:05.351Z,30.54
2018-07-14T15:14:34.256Z,33.56
2018-07-14T15:17:02.288Z,35.08
2018-07-14T15:19:29.844Z,37.26
2018-07-14T15:21:57.996Z,37.29
2018-07-14T15:24:26.755Z,38.57
2018-07-14T15:26:56.064Z,39.62
2018-07-14T15:29:24.459Z,39.96
2018-07-14T15:31:52.005Z,39.10
2018-07-14T15:34:19.223Z,38.89
2018-07-14T15:36:46.379Z,39.26
2018-07-14T15:39:13.631Z,39.58
2018-07-14T15:41:40.851Z,40.13
2018-07-14T15:44:08.872Z,40.13
2018-07-14T15:46:35.970Z,40.53
2018-07-14T15:49:03.233Z,38.95
2018-07-14T15:51:30.521Z,38.81
2018-07-14T15:53:57.737Z,39.68
2018-07-14T15:56:24.993Z,37.29
2018-07-14T15:58:54.058Z,36.39
2018-07-14T16:01:22.312Z,33.86
2018-07-14T16:03:49.621Z,32.91
2018-07-14T16:06:16.791Z,30.80
2018-07-14T16:08:45.614Z,29.48
2018-07-14T16:11:12.803Z,28.79
2018-07-14T16:13:40.989Z,28.29
2018-07-14T16:16:08.239Z,27.52
2018-07-14T16:18:35.440Z,26.72
2018-07-14T16:21:02.612Z,26.60
2018-07-14T16:23:29.848Z,26.55
2018-07-14T16:25:57.048Z,26.15
2018-07-14T16:28:24.436Z,25.58
2018-07-14T16:30:51.543Z,25.10
2018-07-14T16:33:18.747Z,25.34
2018-07-14T16:35:45.992Z,25.50
2018-07-14T16:38:13.032Z,25.47
2018-07-14T16:40:41.156Z,25.22
2018-07-14T16:43:08.332Z,25.20
2018-07-14T16:45:35.472Z,25.03
2018-07-14T16:48:02.768Z,24.76
2018-07-14T16:50:30.667Z,24.71
2018-07-14T16:52:58.039Z,24.80
2018-07-14T16:55:28.268Z,24.79
2018-07-14T16:57:58.095Z,24.88
2018-07-14T17:00:28.458Z,24.60
2018-07-14T17:02:57.724Z,24.63
2018-07-14T17:05:26.819Z,24.54
2018-07-14T17:07:55.580Z,24.17
2018-07-14T17:10:26.422Z,23.99
2018-07-14T17:12:55.697Z,23.96
2018-07-14T17:15:26.005Z,23.99
2018-07-14T17:17:54.651Z,23.90
2018-07-14T17:20:23.008Z,23.64
2018-07-14T17:22:50.448Z,23.49
2018-07-14T17:25:17.693Z,23.44
2018-07-14T17:27:44.831Z,23.27
2018-07-14T17:30:13.337Z,23.34
2018-07-14T17:32:47.018Z,23.22
2018-07-14T17:35:14.670Z,23.12
2018-07-14T17:37:42.477Z,23.03
2018-07-14T17:40:10.052Z,22.95
2018-07-14T17:42:37.883Z,22.92
2018-07-14T17:45:06.379Z,22.82
2018-07-14T17:47:35.240Z,22.87
2018-07-14T17:50:04.075Z,22.67
2018-07-14T17:52:32.697Z,22.64
2018-07-14T17:55:01.763Z,22.68
2018-07-14T17:57:30.077Z,22.61
2018-07-14T17:59:57.614Z,22.41
2018-07-14T18:02:25.255Z,22.32
2018-07-14T18:04:52.498Z,22.30
2018-07-14T18:07:19.591Z,22.25
2018-07-14T18:09:46.776Z,22.20
2018-07-14T18:12:13.872Z,21.94
2018-07-14T18:14:41.028Z,21.88
2018-07-14T18:17:08.268Z,21.77
2018-07-14T18:19:35.501Z,21.78
2018-07-14T18:22:02.677Z,21.76
2018-07-14T18:24:29.933Z,21.61
2018-07-14T18:26:57.143Z,21.55
2018-07-14T18:29:25.497Z,21.50
2018-07-14T18:31:53.108Z,21.52
2018-07-14T18:34:20.224Z,21.40
2018-07-14T18:36:47.312Z,21.38
2018-07-14T18:39:14.444Z,21.33
2018-07-14T18:41:41.584Z,21.24
2018-07-14T18:44:10.088Z,21.12
2018-07-14T18:46:37.268Z,21.01
2018-07-14T18:49:05.461Z,20.90
2018-07-14T18:51:32.600Z,20.87
2018-07-14T18:53:59.812Z,20.87
2018-07-14T18:56:26.998Z,20.92
2018-07-14T18:58:55.072Z,20.78
2018-07-14T19:01:22.443Z,20.64
2018-07-14T19:03:49.629Z,20.66
2018-07-14T19:06:16.975Z,20.53
2018-07-14T19:08:44.249Z,20.43
2018-07-14T19:11:11.367Z,20.30
2018-07-14T19:13:38.566Z,20.21
2018-07-14T19:16:05.811Z,20.02
2018-07-14T19:18:32.920Z,19.89
2018-07-14T19:21:00.119Z,19.73
2018-07-14T19:23:27.761Z,19.58
2018-07-14T19:25:55.033Z,19.41
2018-07-14T19:28:22.247Z,19.30
2018-07-14T19:30:49.621Z,19.18
2018-07-14T19:33:16.780Z,19.09
2018-07-14T19:35:44.017Z,19.06
2018-07-14T19:38:11.183Z,18.91
2018-07-14T19:40:38.316Z,18.80
2018-07-14T19:43:05.525Z,18.70
2018-07-14T19:45:32.776Z,18.59
2018-07-14T19:48:01.922Z,18.51
2018-07-14T19:50:29.624Z,18.41
2018-07-14T19:52:56.930Z,18.32
2018-07-14T19:55:24.125Z,18.22
2018-07-14T19:57:51.293Z,18.16
2018-07-14T20:00:18.514Z,18.03
2018-07-14T20:02:45.666Z,17.96
2018-07-14T20:05:13.838Z,17.86
2018-07-14T20:07:41.855Z,17.79
2018-07-14T20:10:08.946Z,17.71
2018-07-14T20:12:36.073Z,17.75
2018-07-14T20:15:03.336Z,17.67
2018-07-14T20:17:32.195Z,17.67
2018-07-14T20:19:59.394Z,17.65
2018-07-14T20:22:27.548Z,17.69
2018-07-14T20:24:54.902Z,17.66
2018-07-14T20:27:22.137Z,17.63
2018-07-14T20:29:49.399Z,17.56
2018-07-14T20:32:16.525Z,17.50
2018-07-14T20:34:43.719Z,17.45
2018-07-14T20:37:10.945Z,17.35
2018-07-14T20:39:38.148Z,17.31
2018-07-14T20:42:05.261Z,17.24
2018-07-14T20:44:32.670Z,17.18
2018-07-14T20:46:59.920Z,17.16
2018-07-14T20:49:27.056Z,17.11
2018-07-14T20:51:54.329Z,17.11
2018-07-14T20:54:22.666Z,17.10
2018-07-14T20:56:50.042Z,17.12
2018-07-14T20:59:17.276Z,17.09
2018-07-14T21:01:44.373Z,17.12
2018-07-14T21:04:11.465Z,17.09
2018-07-14T21:06:39.503Z,17.09
2018-07-14T21:09:06.803Z,17.07
2018-07-14T21:11:33.974Z,17.18
2018-07-14T21:14:01.950Z,17.16
2018-07-14T21:16:29.159Z,17.28
2018-07-14T21:18:56.384Z,17.20
2018-07-14T21:21:25.073Z,17.27
2018-07-14T21:23:52.315Z,17.27
2018-07-14T21:26:19.440Z,17.17
2018-07-14T21:28:46.584Z,17.10
2018-07-14T21:31:13.945Z,17.15
2018-07-14T21:33:41.038Z,17.11
2018-07-14T21:36:08.173Z,17.10
2018-07-14T21:38:35.306Z,17.06
2018-07-14T21:41:02.765Z,17.01
2018-07-14T21:43:30.142Z,17.02
2018-07-14T21:45:57.403Z,17.00
2018-07-14T21:48:24.982Z,16.94
2018-07-14T21:50:52.279Z,16.87
2018-07-14T21:53:19.470Z,16.80
2018-07-14T21:55:46.606Z,16.69
2018-07-14T21:58:13.738Z,16.63
2018-07-14T22:00:46.669Z,16.53
2018-07-14T22:03:13.828Z,16.38
2018-07-14T22:05:41.209Z,16.26
2018-07-14T22:08:08.329Z,16.14
2018-07-14T22:10:35.535Z,16.06
2018-07-14T22:13:02.824Z,16.00
2018-07-14T22:15:30.019Z,15.95
2018-07-14T22:17:58.648Z,15.89
2018-07-14T22:20:26.044Z,15.87
2018-07-14T22:22:53.287Z,15.82
2018-07-14T22:25:20.557Z,15.80
2018-07-14T22:27:47.687Z,15.74
2018-07-14T22:30:14.783Z,15.75
2018-07-14T22:32:42.669Z,15.73
2018-07-14T22:35:09.764Z,15.77
2018-07-14T22:37:37.229Z,15.75
2018-07-14T22:40:04.643Z,15.80
2018-07-14T22:42:31.768Z,15.87
2018-07-14T22:44:58.898Z,15.85
2018-07-14T22:47:26.105Z,15.80
2018-07-14T22:49:53.449Z,15.74
2018-07-14T22:52:21.609Z,15.67
2018-07-14T22:54:48.780Z,15.51
2018-07-14T22:57:15.890Z,15.49
2018-07-14T22:59:43.004Z,15.39
2018-07-14T23:02:11.539Z,15.34
2018-07-14T23:04:38.652Z,15.24
2018-07-14T23:07:05.776Z,15.21
2018-07-14T23:09:33.680Z,15.14
2018-07-14T23:12:00.958Z,15.07
2018-07-14T23:14:28.746Z,15.05
2018-07-14T23:16:56.457Z,14.97
2018-07-14T23:19:23.704Z,14.90
2018-07-14T23:21:54.217Z,14.87
2018-07-14T23:24:21.359Z,14.86
2018-07-14T23:26:48.674Z,14.81
2018-07-14T23:29:16.151Z,14.79
2018-07-14T23:31:43.593Z,14.72
2018-07-14T23:34:10.728Z,14.71
2018-07-14T23:36:37.843Z,14.67
2018-07-14T23:39:06.420Z,14.64
2018-07-14T23:41:33.588Z,14.61
2018-07-14T23:44:00.744Z,14.50
2018-07-14T23:46:27.994Z,14.44
2018-07-14T23:48:55.463Z,14.45
2018-07-14T23:51:22.795Z,14.38
2018-07-14T23:53:50.036Z,14.33
2018-07-14T23:56:17.233Z,14.27
2018-07-14T23:58:44.467Z,14.24
